Time;durP1;ratioP1;P1;durP2;ratioP2;P2;SDS_P1;SDS_P2;PMS_P1;PMS_P2;Temp;Humidity;BMP_temperature;BMP_pressure;BME280_temperature;BME280_humidity;BME280_pressure;Samples;Min_cycle;Max_cycle;Signal;HPM_P1;HPM_P2
2022/12/30 00:02:16;;;;;;;11.38;2.40;;;6.40;99.90;;;;;;4978326;28;20054;-60
2022/12/30 00:04:43;;;;;;;10.23;1.95;;;6.30;99.90;;;;;;4981811;28;20047;-60
2022/12/30 00:07:10;;;;;;;19.13;2.60;;;6.30;99.90;;;;;;4975640;28;20047;-61
2022/12/30 00:09:36;;;;;;;11.23;2.72;;;6.30;99.90;;;;;;4977800;28;20074;-62
2022/12/30 00:33:06;;;;;;;17.20;4.75;;;6.30;99.90;;;;;;4959779;28;20047;-61
2022/12/30 00:34:35;;;;;;;11.27;2.08;;;6.30;99.90;;;;;;4956564;28;20046;-61
2022/12/30 00:37:02;;;;;;;15.63;4.32;;;6.20;99.90;;;;;;4961310;28;20051;-59
2022/12/30 00:39:28;;;;;;;6.53;2.28;;;6.20;99.90;;;;;;4964843;28;20073;-61
2022/12/30 00:44:41;;;;;;;16.02;4.15;;;6.10;99.90;;;;;;4986013;28;20047;-60
2022/12/30 00:47:07;;;;;;;16.92;2.55;;;6.20;99.90;;;;;;4986550;28;20059;-61
2022/12/30 00:57:51;;;;;;;11.82;2.28;;;6.10;99.90;;;;;;4977623;28;20055;-60
2022/12/30 01:00:18;;;;;;;11.38;2.80;;;6.10;99.90;;;;;;4961736;28;20499;-60
2022/12/30 01:02:44;;;;;;;18.73;3.47;;;6.00;99.90;;;;;;4977392;28;20074;-60
2022/12/30 01:05:11;;;;;;;17.85;2.78;;;6.00;99.90;;;;;;4981524;28;20049;-61
2022/12/30 01:07:38;;;;;;;13.02;2.45;;;6.00;99.90;;;;;;4964347;28;20046;-60
2022/12/30 01:10:05;;;;;;;11.57;2.78;;;6.00;99.90;;;;;;4968824;28;20063;-61
2022/12/30 01:12:32;;;;;;;22.50;3.00;;;6.00;99.90;;;;;;4985938;28;20077;-60
2022/12/30 01:14:59;;;;;;;18.08;2.92;;;6.00;99.90;;;;;;4985798;28;20077;-60
2022/12/30 01:17:28;;;;;;;12.27;2.13;;;6.10;99.90;;;;;;4985786;28;20050;-59
2022/12/30 01:19:55;;;;;;;12.00;1.90;;;6.10;99.90;;;;;;4986233;28;20046;-60
2022/12/30 01:22:21;;;;;;;18.88;3.10;;;6.20;99.90;;;;;;4985129;28;20046;-60
2022/12/30 01:24:48;;;;;;;21.00;3.55;;;6.20;99.90;;;;;;4968405;28;20168;-61
2022/12/30 01:27:15;;;;;;;25.38;3.13;;;6.30;99.90;;;;;;4984803;28;20057;-61
2022/12/30 01:29:42;;;;;;;11.85;3.25;;;6.30;99.90;;;;;;4985519;28;20046;-61
2022/12/30 01:32:12;;;;;;;30.58;3.20;;;6.40;99.90;;;;;;4985317;28;20109;-60
2022/12/30 01:34:39;;;;;;;16.27;2.88;;;6.40;99.90;;;;;;4952587;28;20548;-60
2022/12/30 01:37:06;;;;;;;12.75;2.30;;;6.40;99.90;;;;;;4985800;28;20130;-60
2022/12/30 01:39:32;;;;;;;15.70;1.83;;;6.40;99.90;;;;;;4984532;28;20051;-61
2022/12/30 01:41:59;;;;;;;17.60;2.42;;;6.50;99.90;;;;;;4984990;28;20066;-60
2022/12/30 01:44:50;;;;;;;17.77;2.95;;;6.50;99.90;;;;;;4984469;28;20055;-61
2022/12/30 01:47:43;;;;;;;14.20;3.40;;;6.60;99.90;;;;;;4981301;28;20042;-60
2022/12/30 01:50:10;;;;;;;18.65;3.13;;;6.60;99.90;;;;;;4965675;28;20031;-61
2022/12/30 01:53:09;;;;;;;19.77;3.95;;;6.60;99.90;;;;;;4986952;28;20043;-61
2022/12/30 01:55:57;;;;;;;15.30;2.45;;;6.70;99.90;;;;;;4969099;28;20074;-61
2022/12/30 01:58:28;;;;;;;14.25;1.92;;;6.70;99.90;;;;;;4967287;28;20043;-61
2022/12/30 02:00:55;;;;;;;12.68;2.45;;;6.70;99.90;;;;;;4952941;28;20078;-60
2022/12/30 02:03:22;;;;;;;18.27;3.60;;;6.80;99.90;;;;;;4983920;28;20074;-61
2022/12/30 02:05:49;;;;;;;21.60;2.78;;;6.90;99.90;;;;;;4967398;28;20066;-60
2022/12/30 02:08:19;;;;;;;18.45;2.72;;;6.90;99.90;;;;;;4966881;28;20053;-61
2022/12/30 02:10:49;;;;;;;18.60;2.75;;;6.90;99.90;;;;;;4950656;28;20154;-60
2022/12/30 02:13:16;;;;;;;14.48;2.75;;;7.00;99.90;;;;;;4966036;28;20058;-61
2022/12/30 02:15:55;;;;;;;21.75;2.90;;;7.00;99.90;;;;;;4982282;28;20070;-61
2022/12/30 02:19:20;;;;;;;24.52;4.35;;;7.00;99.90;;;;;;4974502;28;20078;-61
2022/12/30 02:22:28;;;;;;;15.57;2.43;;;7.20;99.90;;;;;;4916431;29;20084;-61
2022/12/30 02:25:20;;;;;;;29.30;4.07;;;7.20;99.90;;;;;;4960514;28;20062;-61
2022/12/30 02:28:14;;;;;;;18.97;2.37;;;7.30;99.90;;;;;;4636457;28;10000550;-62
2022/12/30 02:31:09;;;;;;;19.25;4.00;;;7.30;99.90;;;;;;4963961;28;20081;-61
2022/12/30 02:33:58;;;;;;;15.95;2.10;;;7.40;99.90;;;;;;4980063;28;20050;-61
2022/12/30 02:36:45;;;;;;;10.80;2.30;;;7.40;99.90;;;;;;4955735;28;20651;-61
2022/12/30 02:39:30;;;;;;;16.88;2.75;;;7.50;99.90;;;;;;4975883;28;20078;-61
2022/12/30 02:45:21;;;;;;;15.88;2.70;;;7.60;99.90;;;;;;4967633;28;20058;-61
2022/12/30 02:47:51;;;;;;;20.40;2.47;;;7.60;99.90;;;;;;4981956;28;20123;-61
2022/12/30 02:53:11;;;;;;;18.45;2.50;;;7.60;99.90;;;;;;4967964;28;20113;-61
2022/12/30 02:55:37;;;;;;;25.08;5.68;;;7.70;99.90;;;;;;4964485;28;20094;-61
2022/12/30 02:58:04;;;;;;;17.85;2.70;;;7.70;99.90;;;;;;4949262;28;20074;-61
2022/12/30 03:06:38;;;;;;;16.23;4.80;;;7.80;99.90;;;;;;4951178;29;20062;-60
2022/12/30 03:09:30;;;;;;;17.95;1.98;;;7.90;99.90;;;;;;4983149;28;20050;-61
2022/12/30 03:12:17;;;;;;;15.15;2.35;;;7.90;99.90;;;;;;4968855;28;20050;-61
2022/12/30 03:14:47;;;;;;;25.35;2.72;;;7.90;99.90;;;;;;4964541;28;20078;-61
2022/12/30 03:17:18;;;;;;;18.27;2.53;;;7.90;99.90;;;;;;4985449;28;20142;-61
2022/12/30 03:19:47;;;;;;;15.73;2.85;;;8.00;99.90;;;;;;4969936;28;20158;-61
2022/12/30 03:27:46;;;;;;;20.25;2.75;;;8.00;99.90;;;;;;4957835;28;20050;-61
2022/12/30 03:30:13;;;;;;;11.85;2.97;;;8.00;99.90;;;;;;4951809;28;20106;-61
2022/12/30 03:32:40;;;;;;;18.42;3.42;;;8.00;99.90;;;;;;4952126;28;20061;-61
2022/12/30 03:35:07;;;;;;;19.35;2.85;;;8.00;99.90;;;;;;4968136;28;20078;-61
2022/12/30 03:37:45;;;;;;;20.50;3.25;;;8.00;99.90;;;;;;4968059;28;20074;-61
2022/12/30 03:40:17;;;;;;;15.75;2.28;;;7.90;99.90;;;;;;4969602;28;20057;-61
2022/12/30 03:42:45;;;;;;;15.50;3.13;;;7.90;99.90;;;;;;4937337;28;20118;-61
2022/12/30 03:45:12;;;;;;;16.75;2.38;;;7.90;99.90;;;;;;4951827;28;20055;-61
2022/12/30 03:47:39;;;;;;;11.35;2.00;;;7.90;99.90;;;;;;4967906;28;20057;-61
2022/12/30 03:50:06;;;;;;;21.88;3.40;;;7.90;99.90;;;;;;4985371;28;20086;-61
2022/12/30 03:52:32;;;;;;;24.88;3.67;;;7.90;99.90;;;;;;4985104;28;20149;-61
2022/12/30 03:54:59;;;;;;;29.15;5.35;;;7.90;99.90;;;;;;4967784;28;20043;-61
2022/12/30 03:57:26;;;;;;;23.88;2.55;;;7.90;99.90;;;;;;4984766;28;20515;-61
2022/12/30 03:59:53;;;;;;;18.52;3.42;;;8.00;99.90;;;;;;4984674;28;20074;-61
2022/12/30 04:02:19;;;;;;;19.27;2.15;;;8.00;99.90;;;;;;4967805;28;20106;-61
2022/12/30 04:04:47;;;;;;;18.45;2.40;;;7.90;99.90;;;;;;4967040;28;20062;-61
2022/12/30 04:07:13;;;;;;;21.25;2.33;;;7.90;99.90;;;;;;4985326;28;20054;-61
2022/12/30 04:09:40;;;;;;;14.48;2.20;;;8.00;99.90;;;;;;4987232;28;20085;-61
2022/12/30 04:12:07;;;;;;;7.50;2.42;;;8.00;99.90;;;;;;4987965;28;20070;-61
2022/12/30 04:14:34;;;;;;;19.42;3.42;;;8.00;99.90;;;;;;4969559;28;20115;-61
2022/12/30 04:17:00;;;;;;;18.10;3.00;;;8.00;99.90;;;;;;4985374;28;20047;-61
2022/12/30 04:19:27;;;;;;;16.35;3.10;;;8.00;99.90;;;;;;4969261;28;20046;-61
2022/12/30 04:21:54;;;;;;;10.50;2.90;;;8.00;99.90;;;;;;4984957;28;20106;-61
2022/12/30 04:24:21;;;;;;;20.88;2.83;;;8.00;99.90;;;;;;4985541;28;20586;-61
2022/12/30 04:26:48;;;;;;;15.95;2.83;;;8.00;99.90;;;;;;4984584;28;20122;-61
2022/12/30 04:29:14;;;;;;;17.20;2.83;;;8.00;99.90;;;;;;4985714;28;20042;-63
2022/12/30 04:31:41;;;;;;;17.33;3.35;;;8.00;99.90;;;;;;4968406;28;20050;-61
2022/12/30 04:34:09;;;;;;;11.57;2.65;;;8.00;99.90;;;;;;4986323;28;20077;-61
2022/12/30 04:36:36;;;;;;;12.57;2.80;;;8.00;99.90;;;;;;4986378;28;20078;-61
2022/12/30 04:39:03;;;;;;;22.45;2.53;;;8.00;99.90;;;;;;4986257;28;20047;-61
2022/12/30 04:41:30;;;;;;;20.48;3.10;;;8.10;99.90;;;;;;4985800;28;20051;-61
2022/12/30 04:43:56;;;;;;;22.55;3.25;;;8.10;99.90;;;;;;4953395;28;20102;-61
2022/12/30 04:46:23;;;;;;;16.40;2.92;;;8.10;99.90;;;;;;4985659;28;20055;-61
2022/12/30 04:48:50;;;;;;;19.23;6.28;;;8.10;99.90;;;;;;4985646;28;20051;-61
2022/12/30 04:51:22;;;;;;;12.95;2.40;;;8.00;99.90;;;;;;4984684;28;20042;-61
2022/12/30 04:53:49;;;;;;;12.45;3.53;;;8.10;99.90;;;;;;4967583;28;20106;-61
2022/12/30 04:56:16;;;;;;;18.90;2.50;;;8.10;99.90;;;;;;4985288;28;20495;-61
2022/12/30 04:58:50;;;;;;;26.27;5.43;;;8.10;99.90;;;;;;4967502;28;20097;-61
2022/12/30 05:01:17;;;;;;;17.15;2.20;;;8.10;99.90;;;;;;4967358;28;20526;-61
2022/12/30 05:03:44;;;;;;;15.18;2.97;;;8.10;99.90;;;;;;4984147;28;20133;-61
2022/12/30 05:06:11;;;;;;;10.65;2.70;;;8.20;99.90;;;;;;4968111;28;20051;-61
2022/12/30 05:08:38;;;;;;;23.27;3.95;;;8.20;99.90;;;;;;4986311;28;20055;-61
2022/12/30 05:11:04;;;;;;;10.48;2.33;;;8.20;99.90;;;;;;4985480;28;20047;-62
2022/12/30 05:13:31;;;;;;;13.35;2.78;;;8.30;99.90;;;;;;4982789;28;20053;-61
2022/12/30 05:15:58;;;;;;;16.40;2.70;;;8.20;99.90;;;;;;4967321;28;20050;-61
2022/12/30 05:18:25;;;;;;;11.82;2.63;;;8.30;99.90;;;;;;4985974;28;20097;-61
2022/12/30 05:20:51;;;;;;;18.67;2.80;;;8.30;99.90;;;;;;4969927;28;20074;-62
2022/12/30 05:26:13;;;;;;;15.90;2.03;;;8.40;99.90;;;;;;4967819;29;20062;-61
2022/12/30 05:28:44;;;;;;;12.23;2.90;;;8.40;99.90;;;;;;4984237;28;20043;-61
2022/12/30 05:31:12;;;;;;;17.05;2.42;;;8.40;99.90;;;;;;4986405;28;20074;-61
2022/12/30 05:33:38;;;;;;;11.13;2.20;;;8.40;99.90;;;;;;4985572;28;20051;-61
2022/12/30 05:36:06;;;;;;;13.90;2.22;;;8.40;99.90;;;;;;4968708;28;20074;-61
2022/12/30 05:38:32;;;;;;;11.32;2.20;;;8.40;99.90;;;;;;4983097;28;20066;-61
2022/12/30 05:40:59;;;;;;;14.88;2.85;;;8.40;99.90;;;;;;4983329;28;20257;-62
2022/12/30 05:43:35;;;;;;;13.75;2.00;;;8.40;99.90;;;;;;4951846;28;20053;-61
2022/12/30 05:46:02;;;;;;;20.73;3.15;;;8.40;99.90;;;;;;4983086;28;20058;-61
2022/12/30 05:48:29;;;;;;;15.10;1.83;;;8.40;99.90;;;;;;4983494;28;20054;-62
2022/12/30 05:50:56;;;;;;;13.68;2.38;;;8.40;99.90;;;;;;4983237;28;20308;-61
2022/12/30 05:53:24;;;;;;;12.35;2.72;;;8.50;99.90;;;;;;4966558;28;20039;-61
2022/12/30 05:55:52;;;;;;;19.52;2.28;;;8.40;99.90;;;;;;4984782;28;20058;-61
2022/12/30 05:58:19;;;;;;;17.85;2.35;;;8.40;99.90;;;;;;4966343;28;20053;-61
2022/12/30 06:00:46;;;;;;;17.73;4.80;;;8.40;99.90;;;;;;4966650;28;20141;-60
2022/12/30 06:03:13;;;;;;;13.25;2.63;;;8.50;99.90;;;;;;4984110;28;20038;-60
2022/12/30 06:05:41;;;;;;;16.52;2.88;;;8.50;99.90;;;;;;4966754;28;20057;-60
2022/12/30 06:08:09;;;;;;;25.33;3.00;;;8.50;99.90;;;;;;4967397;28;20125;-60
2022/12/30 06:10:36;;;;;;;15.07;2.20;;;8.50;99.90;;;;;;4981028;28;20082;-61
2022/12/30 06:13:03;;;;;;;22.35;2.70;;;8.60;99.90;;;;;;4984848;28;20078;-60
2022/12/30 06:15:29;;;;;;;16.70;2.50;;;8.60;99.90;;;;;;4967837;28;20066;-60
2022/12/30 06:17:56;;;;;;;11.13;3.35;;;8.60;99.90;;;;;;4983468;28;20047;-60
2022/12/30 06:20:23;;;;;;;10.98;2.35;;;8.60;99.90;;;;;;4984764;28;20090;-59
2022/12/30 06:22:50;;;;;;;18.38;2.95;;;8.60;99.90;;;;;;4967681;28;20114;-61
2022/12/30 06:25:17;;;;;;;14.05;2.88;;;8.70;99.90;;;;;;4984360;28;20082;-60
2022/12/30 06:27:43;;;;;;;13.85;3.15;;;8.70;99.90;;;;;;4985304;28;20082;-61
2022/12/30 06:30:11;;;;;;;14.65;2.88;;;8.70;99.90;;;;;;4984237;28;20047;-61
2022/12/30 06:32:37;;;;;;;17.95;3.83;;;8.70;99.90;;;;;;4985185;28;20059;-60
2022/12/30 06:35:05;;;;;;;30.52;4.80;;;8.80;99.90;;;;;;4985706;28;20139;-60
2022/12/30 06:37:31;;;;;;;16.63;3.38;;;8.80;99.90;;;;;;4984879;28;20111;-61
2022/12/30 06:39:58;;;;;;;20.30;2.55;;;8.80;99.90;;;;;;4970313;28;20065;-60
2022/12/30 06:42:25;;;;;;;16.60;3.28;;;8.90;99.90;;;;;;4989816;28;20066;-61
2022/12/30 06:44:52;;;;;;;19.40;4.75;;;8.90;99.90;;;;;;4971498;28;20138;-60
2022/12/30 06:47:18;;;;;;;23.35;5.43;;;8.90;99.90;;;;;;4987605;28;20074;-61
2022/12/30 06:49:45;;;;;;;10.52;2.28;;;8.90;99.90;;;;;;4988659;28;20085;-60
2022/12/30 06:52:12;;;;;;;9.65;1.92;;;9.00;99.90;;;;;;4988969;28;20074;-60
2022/12/30 06:54:39;;;;;;;14.77;3.85;;;9.00;99.90;;;;;;4988266;28;20054;-60
2022/12/30 06:57:05;;;;;;;17.27;2.88;;;9.00;99.90;;;;;;4988899;28;20054;-60
2022/12/30 06:59:32;;;;;;;18.77;2.88;;;9.00;99.90;;;;;;4988660;28;20106;-60
2022/12/30 07:01:59;;;;;;;12.32;2.42;;;8.80;99.90;;;;;;4988317;28;20063;-60
2022/12/30 07:04:26;;;;;;;22.27;2.75;;;9.10;99.90;;;;;;4989612;28;20055;-61
2022/12/30 07:06:53;;;;;;;16.42;2.03;;;9.00;99.90;;;;;;4955360;28;20261;-60
2022/12/30 07:09:19;;;;;;;11.90;2.65;;;9.10;99.90;;;;;;4971171;28;20047;-60
2022/12/30 07:11:46;;;;;;;14.88;2.95;;;9.10;99.90;;;;;;4972909;28;20540;-60
2022/12/30 07:14:13;;;;;;;24.33;3.35;;;9.10;99.90;;;;;;4990299;28;20314;-60
2022/12/30 07:16:40;;;;;;;23.05;5.68;;;9.10;99.90;;;;;;4988857;28;20045;-60
2022/12/30 07:19:07;;;;;;;16.85;2.92;;;9.20;99.90;;;;;;4987095;28;20079;-60
2022/12/30 07:21:33;;;;;;;19.45;2.83;;;9.20;99.90;;;;;;4970342;28;20074;-59
2022/12/30 07:24:00;;;;;;;17.92;3.15;;;9.20;99.90;;;;;;4988211;28;20464;-60
2022/12/30 07:26:27;;;;;;;23.60;3.10;;;9.20;99.90;;;;;;4987685;28;20076;-60
2022/12/30 07:28:54;;;;;;;16.20;2.58;;;9.20;99.90;;;;;;4987431;28;20138;-60
2022/12/30 07:31:21;;;;;;;17.00;3.78;;;9.20;99.90;;;;;;4987736;28;20047;-60
2022/12/30 07:33:48;;;;;;;12.52;2.08;;;9.30;99.90;;;;;;4970750;28;20047;-60
2022/12/30 07:36:14;;;;;;;12.52;2.28;;;9.20;99.90;;;;;;4988823;28;20193;-60
2022/12/30 07:38:41;;;;;;;16.75;3.45;;;9.20;99.90;;;;;;4987408;28;20054;-60
2022/12/30 07:41:08;;;;;;;12.48;2.65;;;9.20;99.90;;;;;;4988595;28;20471;-60
2022/12/30 07:43:35;;;;;;;18.75;2.97;;;9.20;99.90;;;;;;4955937;28;20134;-59
2022/12/30 07:46:05;;;;;;;12.02;3.28;;;9.20;99.90;;;;;;4989057;28;20050;-60
2022/12/30 07:48:33;;;;;;;18.65;2.90;;;9.20;99.90;;;;;;4987541;28;20051;-59
2022/12/30 07:50:59;;;;;;;23.10;2.80;;;9.10;99.90;;;;;;4954442;28;20054;-59
2022/12/30 07:53:26;;;;;;;14.98;2.42;;;9.10;99.90;;;;;;4970118;28;20050;-59
2022/12/30 07:55:53;;;;;;;15.07;2.28;;;9.10;99.90;;;;;;4970062;28;20129;-61
2022/12/30 07:58:20;;;;;;;19.02;5.78;;;9.10;99.90;;;;;;4986881;28;20114;-60
2022/12/30 08:00:47;;;;;;;13.25;2.47;;;9.10;99.90;;;;;;4968622;28;20073;-61
2022/12/30 08:03:13;;;;;;;13.63;2.15;;;9.00;99.90;;;;;;4968872;28;20078;-61
2022/12/30 08:05:41;;;;;;;16.50;3.88;;;9.00;99.90;;;;;;4986230;28;20051;-61
2022/12/30 08:08:08;;;;;;;13.32;2.47;;;9.00;99.90;;;;;;4987675;28;20051;-61
2022/12/30 08:10:37;;;;;;;12.48;2.15;;;8.90;99.90;;;;;;4969327;28;20066;-61
2022/12/30 08:13:04;;;;;;;7.22;1.48;;;8.90;99.90;;;;;;4969407;28;20109;-61
2022/12/30 08:15:31;;;;;;;12.75;2.10;;;8.90;99.90;;;;;;4986289;28;20090;-61
2022/12/30 08:17:58;;;;;;;6.95;1.65;;;8.80;99.90;;;;;;4983857;28;20042;-61
2022/12/30 08:20:25;;;;;;;14.43;2.25;;;8.80;99.90;;;;;;4981968;28;20142;-61
2022/12/30 08:22:51;;;;;;;8.88;2.33;;;8.70;99.90;;;;;;4979027;28;20038;-60
2022/12/30 08:25:18;;;;;;;5.70;1.50;;;8.70;99.90;;;;;;4979671;28;20039;-61
2022/12/30 08:27:45;;;;;;;8.10;1.45;;;8.70;99.90;;;;;;4962413;28;20061;-61
2022/12/30 08:30:12;;;;;;;9.98;1.90;;;8.70;99.90;;;;;;4977717;28;20102;-61
2022/12/30 08:32:39;;;;;;;12.13;1.83;;;8.70;99.90;;;;;;4978917;28;20110;-61
2022/12/30 08:35:07;;;;;;;14.95;2.05;;;8.60;99.90;;;;;;4976048;28;20078;-61
2022/12/30 08:37:34;;;;;;;10.05;1.23;;;8.70;99.90;;;;;;4959373;28;20109;-61
2022/12/30 08:40:04;;;;;;;9.30;2.00;;;8.60;99.90;;;;;;4975454;28;20061;-61
2022/12/30 08:42:31;;;;;;;8.85;2.42;;;8.60;99.90;;;;;;4956853;28;20546;-61
2022/12/30 08:44:57;;;;;;;8.65;1.20;;;8.60;99.90;;;;;;4972182;28;20086;-61
2022/12/30 08:47:24;;;;;;;10.23;1.52;;;8.60;99.90;;;;;;4972582;28;20173;-61
2022/12/30 08:49:51;;;;;;;5.68;2.05;;;8.60;99.90;;;;;;4950487;28;20042;-61
2022/12/30 08:52:18;;;;;;;4.50;1.05;;;8.60;99.90;;;;;;4938704;29;20146;-60
2022/12/30 08:54:45;;;;;;;5.63;1.77;;;8.50;99.90;;;;;;4962991;28;20097;-61
2022/12/30 08:57:13;;;;;;;4.88;1.52;;;8.50;99.90;;;;;;4971111;28;20057;-61
2022/12/30 08:59:39;;;;;;;3.60;0.98;;;8.50;99.90;;;;;;4970407;28;20245;-61
2022/12/30 09:02:10;;;;;;;5.97;1.25;;;8.50;99.90;;;;;;4953714;28;20061;-61
2022/12/30 09:04:37;;;;;;;6.70;1.15;;;8.50;99.90;;;;;;4970658;28;20047;-60
2022/12/30 09:07:04;;;;;;;6.15;0.93;;;8.50;99.90;;;;;;4971744;28;20150;-61
2022/12/30 09:09:44;;;;;;;8.43;1.45;;;8.50;99.90;;;;;;4970808;28;20055;-61
2022/12/30 09:12:11;;;;;;;11.63;2.97;;;8.50;99.90;;;;;;4972362;28;20545;-61
2022/12/30 09:14:38;;;;;;;6.28;1.35;;;8.50;99.90;;;;;;4970703;28;20066;-59
2022/12/30 09:17:04;;;;;;;4.53;0.77;;;8.50;99.90;;;;;;4972372;28;20077;-59
2022/12/30 09:19:31;;;;;;;6.22;1.80;;;8.50;99.90;;;;;;4971401;28;20434;-60
2022/12/30 09:21:58;;;;;;;4.10;1.00;;;8.50;99.90;;;;;;4970882;28;20121;-60
2022/12/30 09:24:25;;;;;;;6.32;1.15;;;8.50;99.90;;;;;;4972109;28;20051;-60
2022/12/30 09:26:52;;;;;;;4.13;1.17;;;8.50;99.90;;;;;;4971601;28;20047;-60
2022/12/30 09:29:26;;;;;;;2.45;1.05;;;8.60;99.90;;;;;;4971035;28;20057;-61
2022/12/30 09:31:53;;;;;;;3.78;0.70;;;8.60;99.90;;;;;;4611722;28;10000521;-60
2022/12/30 09:34:20;;;;;;;2.90;0.70;;;8.60;99.90;;;;;;4970809;28;20486;-60
2022/12/30 09:36:47;;;;;;;8.43;1.67;;;8.60;99.90;;;;;;4970193;28;20054;-60
2022/12/30 09:39:14;;;;;;;4.30;0.95;;;8.60;99.90;;;;;;4970086;28;20075;-61
2022/12/30 09:44:46;;;;;;;4.07;0.70;;;8.60;99.90;;;;;;4950185;29;20098;-60
2022/12/30 09:47:23;;;;;;;5.13;0.80;;;8.60;99.90;;;;;;4949270;28;20054;-60
2022/12/30 09:50:14;;;;;;;1.58;0.50;;;8.60;99.90;;;;;;4969177;28;20117;-61
2022/12/30 09:53:20;;;;;;;4.43;0.70;;;8.70;99.90;;;;;;4969044;28;20055;-61
2022/12/30 09:56:31;;;;;;;4.25;0.82;;;8.70;99.90;;;;;;4955828;28;20058;-59
2022/12/30 09:59:01;;;;;;;2.60;0.45;;;8.70;99.90;;;;;;4961526;28;20206;-59
2022/12/30 10:01:44;;;;;;;3.85;0.80;;;8.70;99.90;;;;;;4936260;28;20051;-60
2022/12/30 10:04:15;;;;;;;3.70;1.15;;;8.70;99.90;;;;;;4968977;28;20057;-60
2022/12/30 10:07:02;;;;;;;11.20;0.93;;;8.70;99.90;;;;;;4952126;28;20082;-60
2022/12/30 10:09:56;;;;;;;1.65;0.73;;;8.80;99.90;;;;;;4951523;28;20051;-60
2022/12/30 10:12:41;;;;;;;2.80;0.50;;;8.90;99.90;;;;;;4968727;28;20206;-60
2022/12/30 10:15:23;;;;;;;5.97;0.80;;;8.80;99.90;;;;;;4970336;28;20073;-60
2022/12/30 10:18:25;;;;;;;1.55;0.55;;;8.90;99.90;;;;;;4972302;28;20100;-60
2022/12/30 10:21:14;;;;;;;1.73;0.47;;;8.90;99.90;;;;;;4945226;29;20603;-60
2022/12/30 10:23:59;;;;;;;1.35;0.85;;;8.90;99.90;;;;;;4974704;28;20055;-60
2022/12/30 10:26:30;;;;;;;3.83;0.40;;;9.00;99.90;;;;;;4972456;28;20046;-60
2022/12/30 10:29:07;;;;;;;1.70;0.63;;;9.00;99.90;;;;;;4939680;28;20522;-60
2022/12/30 10:31:35;;;;;;;2.35;0.50;;;9.00;99.90;;;;;;4943571;28;20061;-60
2022/12/30 10:34:18;;;;;;;1.30;0.40;;;9.10;99.90;;;;;;4955551;28;20556;-60
2022/12/30 10:37:04;;;;;;;3.30;0.57;;;9.10;99.90;;;;;;4971759;28;20046;-61
2022/12/30 10:39:33;;;;;;;0.57;0.32;;;9.10;99.90;;;;;;4940476;28;20051;-61
2022/12/30 10:42:02;;;;;;;1.60;0.70;;;9.10;99.90;;;;;;4954806;28;20461;-60
2022/12/30 10:44:34;;;;;;;3.88;0.40;;;9.10;99.90;;;;;;4971654;28;20126;-60
2022/12/30 10:47:04;;;;;;;0.75;0.30;;;9.20;99.90;;;;;;4940152;28;20110;-61
2022/12/30 10:49:39;;;;;;;8.85;0.93;;;9.10;99.90;;;;;;4971489;28;20050;-60
2022/12/30 10:52:07;;;;;;;2.38;0.40;;;9.20;99.90;;;;;;4970777;28;20062;-60
2022/12/30 10:54:35;;;;;;;2.25;0.40;;;9.20;99.90;;;;;;4936968;28;20130;-60
2022/12/30 10:57:03;;;;;;;0.93;0.50;;;9.20;99.90;;;;;;4953396;28;20055;-60
2022/12/30 10:59:29;;;;;;;1.67;0.38;;;9.30;99.90;;;;;;4970454;28;20159;-59
2022/12/30 11:02:02;;;;;;;1.52;0.50;;;9.30;99.90;;;;;;4951879;28;20117;-60
2022/12/30 11:04:37;;;;;;;0.22;0.20;;;9.40;99.90;;;;;;4951770;28;20062;-60
2022/12/30 11:07:06;;;;;;;0.98;0.30;;;9.40;99.90;;;;;;4951937;28;20240;-60
2022/12/30 11:09:33;;;;;;;6.15;0.82;;;9.40;99.90;;;;;;4968467;28;20058;-60
2022/12/30 11:15:20;;;;;;;1.50;0.55;;;9.60;99.90;;;;;;4968969;28;20046;-59
2022/12/30 11:17:57;;;;;;;0.75;0.60;;;9.70;99.90;;;;;;4952128;28;20109;-60
2022/12/30 11:20:31;;;;;;;2.72;0.32;;;9.70;99.90;;;;;;4951396;28;20054;-59
2022/12/30 11:22:59;;;;;;;0.50;0.30;;;9.80;99.90;;;;;;4968467;28;20055;-60
2022/12/30 11:25:56;;;;;;;1.20;0.40;;;9.90;99.90;;;;;;4973296;28;20457;-57
2022/12/30 11:28:26;;;;;;;4.20;0.80;;;10.00;99.90;;;;;;4962811;28;20565;-61
2022/12/30 11:31:19;;;;;;;7.32;1.50;;;10.10;99.90;;;;;;4967193;28;20332;-61
2022/12/30 11:33:47;;;;;;;1.23;0.50;;;10.20;99.90;;;;;;4956410;28;20683;-62
2022/12/30 11:36:26;;;;;;;2.25;0.30;;;10.30;99.90;;;;;;4951437;28;20078;-61
2022/12/30 11:38:54;;;;;;;2.83;0.57;;;10.50;99.90;;;;;;4968700;28;20628;-61
2022/12/30 11:41:28;;;;;;;1.55;1.40;;;10.60;99.90;;;;;;4951138;28;20332;-61
2022/12/30 11:44:01;;;;;;;;;;;10.80;99.90;;;;;;4951800;28;20137;-60
2022/12/30 11:46:52;;;;;;;5.32;1.02;;;10.90;99.90;;;;;;4967916;28;19965;-61
2022/12/30 11:49:29;;;;;;;1.88;0.63;;;11.00;99.90;;;;;;4967726;28;20434;-60
2022/12/30 11:51:58;;;;;;;1.92;0.88;;;11.10;99.90;;;;;;4951411;28;20229;-61
2022/12/30 11:54:31;;;;;;;5.25;0.80;;;11.20;99.90;;;;;;4935351;28;20057;-61
2022/12/30 11:57:18;;;;;;;;;;;11.20;99.90;;;;;;4936188;28;20185;-61
2022/12/30 11:59:47;;;;;;;4.07;0.63;;;11.40;99.90;;;;;;4910433;28;1170337;-61
2022/12/30 12:02:21;;;;;;;5.68;0.70;;;11.40;99.90;;;;;;4952841;28;20074;-61
2022/12/30 12:04:48;;;;;;;9.45;1.27;;;11.50;99.90;;;;;;4953481;28;20403;-60
2022/12/30 12:07:18;;;;;;;2.83;1.10;;;11.50;99.90;;;;;;4970750;28;20069;-60
2022/12/30 12:10:12;;;;;;;4.22;0.90;;;11.60;99.90;;;;;;4971022;28;20116;-60
2022/12/30 12:12:43;;;;;;;;;;;11.70;99.90;;;;;;4966609;28;20137;-60
2022/12/30 12:15:41;;;;;;;3.78;0.90;;;11.80;99.90;;;;;;4968166;28;19984;-60
2022/12/30 12:18:21;;;;;;;9.13;0.95;;;11.80;99.90;;;;;;4968220;28;21287;-60
2022/12/30 12:21:15;;;;;;;5.60;0.95;;;11.90;99.90;;;;;;4951528;28;20043;-60
2022/12/30 12:24:01;;;;;;;1.17;0.45;;;12.00;99.90;;;;;;4963793;28;20055;-60
2022/12/30 12:26:53;;;;;;;5.03;0.90;;;12.00;99.90;;;;;;4957279;28;20086;-60
2022/12/30 12:29:20;;;;;;;2.60;1.17;;;12.20;99.90;;;;;;4942456;28;20093;-60
2022/12/30 12:32:21;;;;;;;2.50;0.95;;;12.20;99.90;;;;;;4953618;28;20042;-60
2022/12/30 12:35:35;;;;;;;1.35;0.50;;;12.30;99.90;;;;;;4949824;29;20134;-60
2022/12/30 12:38:24;;;;;;;2.15;0.63;;;12.30;99.90;;;;;;4965893;28;20086;-58
2022/12/30 12:41:12;;;;;;;1.05;0.50;;;12.40;99.90;;;;;;4969040;28;20133;-60
2022/12/30 12:43:45;;;;;;;2.90;1.00;;;12.40;99.90;;;;;;4947900;28;20047;-60
2022/12/30 12:46:27;;;;;;;1.23;0.70;;;12.40;99.90;;;;;;4951351;28;20060;-59
2022/12/30 12:49:10;;;;;;;3.97;1.20;;;12.40;99.90;;;;;;4947204;28;20498;-59
2022/12/30 12:51:57;;;;;;;1.93;0.90;;;12.50;99.90;;;;;;4950644;28;20047;-60
2022/12/30 12:54:30;;;;;;;2.55;0.80;;;12.50;99.90;;;;;;4951479;28;20051;-61
2022/12/30 12:57:20;;;;;;;6.13;1.33;;;12.60;99.90;;;;;;4967692;28;20046;-62
2022/12/30 12:59:50;;;;;;;6.10;1.10;;;12.60;99.90;;;;;;4951062;28;20061;-61
2022/12/30 13:02:44;;;;;;;7.13;0.88;;;12.60;99.90;;;;;;4968721;28;20050;-61
2022/12/30 13:06:04;;;;;;;2.40;0.68;;;12.60;99.90;;;;;;4964704;28;20047;-60
2022/12/30 13:08:53;;;;;;;3.08;1.00;;;12.60;99.90;;;;;;4926392;29;20114;-61
2022/12/30 13:11:40;;;;;;;4.43;0.75;;;12.60;99.90;;;;;;4926836;29;20071;-61
2022/12/30 13:14:25;;;;;;;2.38;0.82;;;12.60;99.90;;;;;;4957190;28;20076;-60
2022/12/30 13:16:54;;;;;;;4.30;0.73;;;12.70;99.90;;;;;;4951011;28;20085;-59
2022/12/30 13:19:23;;;;;;;5.03;1.02;;;12.60;99.90;;;;;;4950959;28;20549;-61
2022/12/30 13:21:52;;;;;;;9.10;1.50;;;12.70;99.90;;;;;;4950414;28;20130;-62
2022/12/30 13:24:32;;;;;;;5.20;1.10;;;12.70;99.90;;;;;;4934783;28;20058;-60
2022/12/30 13:26:59;;;;;;;13.38;1.25;;;12.70;99.90;;;;;;4934941;28;20137;-61
2022/12/30 13:29:29;;;;;;;8.43;1.83;;;12.70;99.90;;;;;;4932418;28;20217;-61
2022/12/30 13:32:29;;;;;;;6.60;2.28;;;12.70;99.90;;;;;;4936665;28;20039;-62
2022/12/30 13:35:19;;;;;;;5.35;1.08;;;12.80;99.90;;;;;;4972698;28;20046;-61
2022/12/30 13:38:08;;;;;;;4.20;1.33;;;12.70;99.90;;;;;;4974536;28;20446;-60
2022/12/30 13:41:04;;;;;;;3.55;0.93;;;12.70;99.90;;;;;;4943263;28;20046;-61
2022/12/30 13:43:43;;;;;;;4.32;0.90;;;12.70;99.90;;;;;;4951494;28;20047;-61
2022/12/30 13:46:36;;;;;;;;;;;12.70;99.90;;;;;;4949891;28;20055;-60
2022/12/30 13:49:29;;;;;;;6.72;1.02;;;12.70;99.90;;;;;;4960972;28;19922;-61
2022/12/30 13:52:00;;;;;;;4.95;1.00;;;12.80;99.90;;;;;;4960083;28;20499;-61
2022/12/30 13:54:27;;;;;;;7.03;2.72;;;12.80;99.90;;;;;;4948645;28;20047;-61
2022/12/30 13:56:54;;;;;;;8.30;1.27;;;12.80;99.90;;;;;;4966990;28;20481;-60
2022/12/30 13:59:28;;;;;;;5.13;1.20;;;12.80;99.90;;;;;;4934072;28;20137;-61
2022/12/30 14:02:10;;;;;;;7.80;1.30;;;12.90;99.90;;;;;;4949265;28;20475;-61
2022/12/30 14:04:48;;;;;;;10.15;2.38;;;12.90;99.90;;;;;;4964964;28;20462;-61
2022/12/30 14:07:43;;;;;;;10.38;2.22;;;12.90;99.90;;;;;;4949987;28;20047;-61
2022/12/30 14:10:19;;;;;;;8.88;1.42;;;13.00;99.90;;;;;;4968639;28;20124;-60
2022/12/30 14:13:11;;;;;;;12.50;1.67;;;13.00;99.90;;;;;;4968791;28;20081;-61
2022/12/30 14:15:41;;;;;;;16.60;2.15;;;13.10;99.90;;;;;;4967450;28;20122;-61
2022/12/30 14:18:30;;;;;;;8.15;1.95;;;13.10;99.90;;;;;;4966411;28;20490;-60